sensor_id;sensor_type;location;lat;lon;timestamp;temperature;humidity
54576;DHT22;40472;53.486;14.542;2023-05-03T00:01:51;5.20;99.90
54576;DHT22;40472;53.486;14.542;2023-05-03T00:04:17;5.10;99.90
54576;DHT22;40472;53.486;14.542;2023-05-03T00:06:43;5.10;99.90
54576;DHT22;40472;53.486;14.542;2023-05-03T00:09:09;5.10;99.90
54576;DHT22;40472;53.486;14.542;2023-05-03T00:11:38;5.00;99.90
54576;DHT22;40472;53.486;14.542;2023-05-03T00:14:07;5.00;99.90
54576;DHT22;40472;53.486;14.542;2023-05-03T00:16:33;5.00;99.90
54576;DHT22;40472;53.486;14.542;2023-05-03T00:18:59;4.90;99.90
54576;DHT22;40472;53.486;14.542;2023-05-03T00:21:26;4.90;99.90
54576;DHT22;40472;53.486;14.542;2023-05-03T00:23:53;4.90;99.90
54576;DHT22;40472;53.486;14.542;2023-05-03T00:26:20;4.80;99.90
54576;DHT22;40472;53.486;14.542;2023-05-03T00:28:47;4.80;99.90
54576;DHT22;40472;53.486;14.542;2023-05-03T00:31:14;4.80;99.90
54576;DHT22;40472;53.486;14.542;2023-05-03T00:33:43;4.80;99.90
54576;DHT22;40472;53.486;14.542;2023-05-03T00:36:10;4.70;99.90
54576;DHT22;40472;53.486;14.542;2023-05-03T00:38:36;4.70;99.90
54576;DHT22;40472;53.486;14.542;2023-05-03T00:41:02;4.60;99.90
54576;DHT22;40472;53.486;14.542;2023-05-03T00:43:29;4.60;99.90
54576;DHT22;40472;53.486;14.542;2023-05-03T00:45:55;4.60;99.90
54576;DHT22;40472;53.486;14.542;2023-05-03T00:48:21;4.50;99.90
54576;DHT22;40472;53.486;14.542;2023-05-03T00:50:47;4.50;99.90
54576;DHT22;40472;53.486;14.542;2023-05-03T00:53:14;4.50;99.90
54576;DHT22;40472;53.486;14.542;2023-05-03T00:55:41;4.50;99.90
54576;DHT22;40472;53.486;14.542;2023-05-03T00:58:08;4.50;99.90
54576;DHT22;40472;53.486;14.542;2023-05-03T01:00:34;4.40;99.90
54576;DHT22;40472;53.486;14.542;2023-05-03T01:03:00;4.40;99.90
54576;DHT22;40472;53.486;14.542;2023-05-03T01:05:29;4.40;99.90
54576;DHT22;40472;53.486;14.542;2023-05-03T01:11:01;4.40;99.90
54576;DHT22;40472;53.486;14.542;2023-05-03T01:13:45;4.40;99.90
54576;DHT22;40472;53.486;14.542;2023-05-03T01:16:30;4.40;99.90
54576;DHT22;40472;53.486;14.542;2023-05-03T01:19:03;4.30;99.90
54576;DHT22;40472;53.486;14.542;2023-05-03T01:21:32;4.30;99.90
54576;DHT22;40472;53.486;14.542;2023-05-03T01:24:12;4.30;99.90
54576;DHT22;40472;53.486;14.542;2023-05-03T01:26:42;4.30;99.90
54576;DHT22;40472;53.486;14.542;2023-05-03T01:29:10;4.30;99.90
54576;DHT22;40472;53.486;14.542;2023-05-03T01:31:43;4.30;99.90
54576;DHT22;40472;53.486;14.542;2023-05-03T01:34:27;4.30;99.90
54576;DHT22;40472;53.486;14.542;2023-05-03T01:36:57;4.20;99.90
54576;DHT22;40472;53.486;14.542;2023-05-03T01:40:02;4.20;99.90
54576;DHT22;40472;53.486;14.542;2023-05-03T01:42:22;4.10;99.90
54576;DHT22;40472;53.486;14.542;2023-05-03T01:44:53;4.10;99.90
54576;DHT22;40472;53.486;14.542;2023-05-03T01:47:22;4.10;99.90
54576;DHT22;40472;53.486;14.542;2023-05-03T01:49:48;4.10;99.90
54576;DHT22;40472;53.486;14.542;2023-05-03T01:52:19;4.00;99.90
54576;DHT22;40472;53.486;14.542;2023-05-03T01:54:45;4.10;99.90
54576;DHT22;40472;53.486;14.542;2023-05-03T01:57:13;4.10;99.90
54576;DHT22;40472;53.486;14.542;2023-05-03T01:59:41;4.00;99.90
54576;DHT22;40472;53.486;14.542;2023-05-03T02:02:07;4.00;99.90
54576;DHT22;40472;53.486;14.542;2023-05-03T02:04:33;4.00;99.90
54576;DHT22;40472;53.486;14.542;2023-05-03T02:06:59;4.00;99.90
54576;DHT22;40472;53.486;14.542;2023-05-03T02:09:24;4.00;99.90
54576;DHT22;40472;53.486;14.542;2023-05-03T02:11:52;4.00;99.90
54576;DHT22;40472;53.486;14.542;2023-05-03T02:14:18;4.00;99.90
54576;DHT22;40472;53.486;14.542;2023-05-03T02:16:44;4.00;99.90
54576;DHT22;40472;53.486;14.542;2023-05-03T02:19:10;4.00;99.90
54576;DHT22;40472;53.486;14.542;2023-05-03T02:21:36;3.90;99.90
54576;DHT22;40472;53.486;14.542;2023-05-03T02:24:02;3.90;99.90
54576;DHT22;40472;53.486;14.542;2023-05-03T02:26:28;3.90;99.90
54576;DHT22;40472;53.486;14.542;2023-05-03T02:28:54;3.90;99.90
54576;DHT22;40472;53.486;14.542;2023-05-03T02:31:25;3.90;99.90
54576;DHT22;40472;53.486;14.542;2023-05-03T02:33:51;3.90;99.90
54576;DHT22;40472;53.486;14.542;2023-05-03T02:36:17;3.90;99.90
54576;DHT22;40472;53.486;14.542;2023-05-03T02:38:43;3.90;99.90
54576;DHT22;40472;53.486;14.542;2023-05-03T02:41:09;3.90;99.90
54576;DHT22;40472;53.486;14.542;2023-05-03T02:43:35;3.80;99.90
54576;DHT22;40472;53.486;14.542;2023-05-03T02:46:03;3.80;99.90
54576;DHT22;40472;53.486;14.542;2023-05-03T02:48:29;3.80;99.90
54576;DHT22;40472;53.486;14.542;2023-05-03T02:50:54;3.80;99.90
54576;DHT22;40472;53.486;14.542;2023-05-03T02:53:23;3.80;99.90
54576;DHT22;40472;53.486;14.542;2023-05-03T02:55:49;3.80;99.90
54576;DHT22;40472;53.486;14.542;2023-05-03T02:58:15;3.70;99.90
54576;DHT22;40472;53.486;14.542;2023-05-03T03:00:41;3.70;99.90
54576;DHT22;40472;53.486;14.542;2023-05-03T03:03:10;3.70;99.90
54576;DHT22;40472;53.486;14.542;2023-05-03T03:05:38;3.70;99.90
54576;DHT22;40472;53.486;14.542;2023-05-03T03:08:04;3.80;99.90
54576;DHT22;40472;53.486;14.542;2023-05-03T03:10:30;3.80;99.90
54576;DHT22;40472;53.486;14.542;2023-05-03T03:12:58;3.70;99.90
54576;DHT22;40472;53.486;14.542;2023-05-03T03:15:26;3.70;99.90
54576;DHT22;40472;53.486;14.542;2023-05-03T03:17:52;3.80;99.90
54576;DHT22;40472;53.486;14.542;2023-05-03T03:20:22;3.70;99.90
54576;DHT22;40472;53.486;14.542;2023-05-03T03:22:47;3.70;99.90
54576;DHT22;40472;53.486;14.542;2023-05-03T03:25:16;3.70;99.90
54576;DHT22;40472;53.486;14.542;2023-05-03T03:27:42;3.60;99.90
54576;DHT22;40472;53.486;14.542;2023-05-03T03:30:11;3.60;99.90
54576;DHT22;40472;53.486;14.542;2023-05-03T03:32:37;3.50;99.90
54576;DHT22;40472;53.486;14.542;2023-05-03T03:35:04;3.60;99.90
54576;DHT22;40472;53.486;14.542;2023-05-03T03:37:33;3.60;99.90
54576;DHT22;40472;53.486;14.542;2023-05-03T03:39:58;3.60;99.90
54576;DHT22;40472;53.486;14.542;2023-05-03T03:42:24;3.60;99.90
54576;DHT22;40472;53.486;14.542;2023-05-03T03:44:53;3.60;99.90
54576;DHT22;40472;53.486;14.542;2023-05-03T03:47:22;3.70;99.90
54576;DHT22;40472;53.486;14.542;2023-05-03T03:49:48;3.70;99.90
54576;DHT22;40472;53.486;14.542;2023-05-03T03:52:14;3.70;99.90
54576;DHT22;40472;53.486;14.542;2023-05-03T03:54:42;3.70;99.90
54576;DHT22;40472;53.486;14.542;2023-05-03T03:57:08;3.80;99.90
54576;DHT22;40472;53.486;14.542;2023-05-03T03:59:36;3.80;99.90
54576;DHT22;40472;53.486;14.542;2023-05-03T04:02:02;3.80;99.90
54576;DHT22;40472;53.486;14.542;2023-05-03T04:04:28;3.80;99.90
54576;DHT22;40472;53.486;14.542;2023-05-03T04:06:59;3.80;99.90
54576;DHT22;40472;53.486;14.542;2023-05-03T04:09:27;3.80;99.90
54576;DHT22;40472;53.486;14.542;2023-05-03T04:11:53;3.80;99.90
54576;DHT22;40472;53.486;14.542;2023-05-03T04:14:22;3.90;99.90
54576;DHT22;40472;53.486;14.542;2023-05-03T04:16:48;3.80;99.90
54576;DHT22;40472;53.486;14.542;2023-05-03T04:19:15;3.80;99.90
54576;DHT22;40472;53.486;14.542;2023-05-03T04:21:42;3.90;99.90
54576;DHT22;40472;53.486;14.542;2023-05-03T04:24:14;3.90;99.90
54576;DHT22;40472;53.486;14.542;2023-05-03T04:26:40;3.90;99.90
54576;DHT22;40472;53.486;14.542;2023-05-03T04:29:07;3.90;99.90
54576;DHT22;40472;53.486;14.542;2023-05-03T04:31:37;3.90;99.90
54576;DHT22;40472;53.486;14.542;2023-05-03T04:34:04;4.00;99.90
54576;DHT22;40472;53.486;14.542;2023-05-03T04:36:30;4.00;99.90
54576;DHT22;40472;53.486;14.542;2023-05-03T04:38:57;4.10;99.90
54576;DHT22;40472;53.486;14.542;2023-05-03T04:41:25;4.10;99.90
54576;DHT22;40472;53.486;14.542;2023-05-03T04:43:53;4.10;99.90
54576;DHT22;40472;53.486;14.542;2023-05-03T04:46:19;4.20;99.90
54576;DHT22;40472;53.486;14.542;2023-05-03T04:48:45;4.20;99.90
54576;DHT22;40472;53.486;14.542;2023-05-03T04:51:14;4.30;99.90
54576;DHT22;40472;53.486;14.542;2023-05-03T04:53:39;4.30;99.90
54576;DHT22;40472;53.486;14.542;2023-05-03T04:56:05;4.30;99.90
54576;DHT22;40472;53.486;14.542;2023-05-03T04:58:35;4.40;99.90
54576;DHT22;40472;53.486;14.542;2023-05-03T05:01:01;4.40;99.90
54576;DHT22;40472;53.486;14.542;2023-05-03T05:03:28;4.60;99.90
54576;DHT22;40472;53.486;14.542;2023-05-03T05:05:55;4.60;99.90
54576;DHT22;40472;53.486;14.542;2023-05-03T05:08:21;4.60;99.90
54576;DHT22;40472;53.486;14.542;2023-05-03T05:10:49;4.60;99.90
54576;DHT22;40472;53.486;14.542;2023-05-03T05:13:16;4.70;99.90
54576;DHT22;40472;53.486;14.542;2023-05-03T05:15:47;4.80;99.90
54576;DHT22;40472;53.486;14.542;2023-05-03T05:18:13;4.70;99.90
54576;DHT22;40472;53.486;14.542;2023-05-03T05:20:38;4.80;99.90
54576;DHT22;40472;53.486;14.542;2023-05-03T05:23:04;4.80;99.90
54576;DHT22;40472;53.486;14.542;2023-05-03T05:25:31;4.90;99.90
54576;DHT22;40472;53.486;14.542;2023-05-03T05:27:56;5.00;99.90
54576;DHT22;40472;53.486;14.542;2023-05-03T05:30:23;5.00;99.90
54576;DHT22;40472;53.486;14.542;2023-05-03T05:32:48;5.00;99.90
54576;DHT22;40472;53.486;14.542;2023-05-03T05:35:14;5.10;99.90
54576;DHT22;40472;53.486;14.542;2023-05-03T05:37:42;5.20;99.90
54576;DHT22;40472;53.486;14.542;2023-05-03T05:40:08;5.20;99.90
54576;DHT22;40472;53.486;14.542;2023-05-03T05:42:34;5.30;99.90
54576;DHT22;40472;53.486;14.542;2023-05-03T05:44:59;5.40;99.90
54576;DHT22;40472;53.486;14.542;2023-05-03T05:47:25;5.40;99.90
54576;DHT22;40472;53.486;14.542;2023-05-03T05:49:51;5.50;99.90
54576;DHT22;40472;53.486;14.542;2023-05-03T05:52:17;5.50;99.90
54576;DHT22;40472;53.486;14.542;2023-05-03T05:54:43;5.60;99.90
54576;DHT22;40472;53.486;14.542;2023-05-03T05:57:08;5.70;99.90
54576;DHT22;40472;53.486;14.542;2023-05-03T05:59:35;5.70;99.90
54576;DHT22;40472;53.486;14.542;2023-05-03T06:02:01;5.80;99.90
54576;DHT22;40472;53.486;14.542;2023-05-03T06:04:27;5.90;99.90
54576;DHT22;40472;53.486;14.542;2023-05-03T06:06:53;6.00;99.90
54576;DHT22;40472;53.486;14.542;2023-05-03T06:09:19;6.00;99.90
54576;DHT22;40472;53.486;14.542;2023-05-03T06:11:47;6.10;99.90
54576;DHT22;40472;53.486;14.542;2023-05-03T06:14:13;6.20;99.90
54576;DHT22;40472;53.486;14.542;2023-05-03T06:16:39;6.30;99.90
54576;DHT22;40472;53.486;14.542;2023-05-03T06:19:05;6.40;99.90
54576;DHT22;40472;53.486;14.542;2023-05-03T06:21:31;6.40;99.90
54576;DHT22;40472;53.486;14.542;2023-05-03T06:23:56;6.40;99.90
54576;DHT22;40472;53.486;14.542;2023-05-03T06:26:25;6.50;99.90
54576;DHT22;40472;53.486;14.542;2023-05-03T06:28:53;6.60;99.90
54576;DHT22;40472;53.486;14.542;2023-05-03T06:31:19;6.80;99.90
54576;DHT22;40472;53.486;14.542;2023-05-03T06:33:44;6.80;99.90
54576;DHT22;40472;53.486;14.542;2023-05-03T06:36:10;6.90;99.90
54576;DHT22;40472;53.486;14.542;2023-05-03T06:38:36;6.90;99.90
54576;DHT22;40472;53.486;14.542;2023-05-03T06:41:02;6.90;99.90
54576;DHT22;40472;53.486;14.542;2023-05-03T06:43:28;7.00;99.90
54576;DHT22;40472;53.486;14.542;2023-05-03T06:45:53;7.10;99.90
54576;DHT22;40472;53.486;14.542;2023-05-03T06:48:21;7.20;99.90
54576;DHT22;40472;53.486;14.542;2023-05-03T06:50:47;7.30;99.90
54576;DHT22;40472;53.486;14.542;2023-05-03T06:53:13;7.40;99.90
54576;DHT22;40472;53.486;14.542;2023-05-03T06:55:41;7.40;99.90
54576;DHT22;40472;53.486;14.542;2023-05-03T06:58:07;7.50;99.90
54576;DHT22;40472;53.486;14.542;2023-05-03T07:00:36;7.50;99.90
54576;DHT22;40472;53.486;14.542;2023-05-03T07:03:04;7.50;99.90
54576;DHT22;40472;53.486;14.542;2023-05-03T07:05:30;7.50;99.90
54576;DHT22;40472;53.486;14.542;2023-05-03T07:07:56;7.70;99.90
54576;DHT22;40472;53.486;14.542;2023-05-03T07:10:22;7.70;99.90
54576;DHT22;40472;53.486;14.542;2023-05-03T07:12:48;7.80;99.90
54576;DHT22;40472;53.486;14.542;2023-05-03T07:15:16;7.90;99.90
54576;DHT22;40472;53.486;14.542;2023-05-03T07:17:42;7.90;99.90
54576;DHT22;40472;53.486;14.542;2023-05-03T07:20:11;8.00;99.90
54576;DHT22;40472;53.486;14.542;2023-05-03T07:22:37;8.10;99.90
54576;DHT22;40472;53.486;14.542;2023-05-03T07:25:05;8.20;99.90
54576;DHT22;40472;53.486;14.542;2023-05-03T07:27:32;8.30;99.90
54576;DHT22;40472;53.486;14.542;2023-05-03T07:29:58;8.40;99.90
54576;DHT22;40472;53.486;14.542;2023-05-03T07:32:24;8.60;99.90
54576;DHT22;40472;53.486;14.542;2023-05-03T07:34:50;8.70;99.90
54576;DHT22;40472;53.486;14.542;2023-05-03T07:37:16;8.70;99.90
54576;DHT22;40472;53.486;14.542;2023-05-03T07:39:42;8.80;99.90
54576;DHT22;40472;53.486;14.542;2023-05-03T07:42:07;9.00;99.90
54576;DHT22;40472;53.486;14.542;2023-05-03T07:44:33;9.10;99.90
54576;DHT22;40472;53.486;14.542;2023-05-03T07:46:59;8.90;99.90
54576;DHT22;40472;53.486;14.542;2023-05-03T07:49:25;9.00;99.90
54576;DHT22;40472;53.486;14.542;2023-05-03T07:51:51;9.00;99.90
54576;DHT22;40472;53.486;14.542;2023-05-03T07:54:17;9.10;99.90
54576;DHT22;40472;53.486;14.542;2023-05-03T07:56:45;9.30;99.90
54576;DHT22;40472;53.486;14.542;2023-05-03T07:59:10;9.30;99.90
54576;DHT22;40472;53.486;14.542;2023-05-03T08:01:37;9.50;99.90
54576;DHT22;40472;53.486;14.542;2023-05-03T08:04:03;9.50;99.90
54576;DHT22;40472;53.486;14.542;2023-05-03T08:06:28;9.40;99.90
54576;DHT22;40472;53.486;14.542;2023-05-03T08:08:55;9.40;99.90
54576;DHT22;40472;53.486;14.542;2023-05-03T08:11:21;9.50;99.90
54576;DHT22;40472;53.486;14.542;2023-05-03T08:13:47;9.70;99.90
54576;DHT22;40472;53.486;14.542;2023-05-03T08:16:13;9.90;99.90
54576;DHT22;40472;53.486;14.542;2023-05-03T08:18:38;10.00;99.90
54576;DHT22;40472;53.486;14.542;2023-05-03T08:21:05;10.20;99.90
54576;DHT22;40472;53.486;14.542;2023-05-03T08:23:35;10.50;99.90
54576;DHT22;40472;53.486;14.542;2023-05-03T08:26:01;10.40;99.90
54576;DHT22;40472;53.486;14.542;2023-05-03T08:28:29;10.40;99.90
54576;DHT22;40472;53.486;14.542;2023-05-03T08:30:55;10.40;99.90
54576;DHT22;40472;53.486;14.542;2023-05-03T08:33:22;10.30;99.90
54576;DHT22;40472;53.486;14.542;2023-05-03T08:35:48;10.30;99.90
54576;DHT22;40472;53.486;14.542;2023-05-03T08:38:14;10.40;99.90
54576;DHT22;40472;53.486;14.542;2023-05-03T08:40:41;10.40;99.90
54576;DHT22;40472;53.486;14.542;2023-05-03T08:43:08;10.10;99.90
54576;DHT22;40472;53.486;14.542;2023-05-03T08:45:36;10.20;99.90
54576;DHT22;40472;53.486;14.542;2023-05-03T08:48:02;10.60;99.90
54576;DHT22;40472;53.486;14.542;2023-05-03T08:50:29;10.90;99.90
54576;DHT22;40472;53.486;14.542;2023-05-03T08:52:56;11.20;99.90
54576;DHT22;40472;53.486;14.542;2023-05-03T08:55:23;11.40;99.90
54576;DHT22;40472;53.486;14.542;2023-05-03T08:57:49;11.30;99.90
54576;DHT22;40472;53.486;14.542;2023-05-03T09:00:15;11.20;99.90
54576;DHT22;40472;53.486;14.542;2023-05-03T09:02:44;11.00;99.90
54576;DHT22;40472;53.486;14.542;2023-05-03T09:07:39;11.40;99.90
54576;DHT22;40472;53.486;14.542;2023-05-03T09:10:22;11.70;99.90
54576;DHT22;40472;53.486;14.542;2023-05-03T09:12:57;11.80;99.90
54576;DHT22;40472;53.486;14.542;2023-05-03T09:15:24;11.90;99.90
54576;DHT22;40472;53.486;14.542;2023-05-03T09:18:13;11.50;99.90
54576;DHT22;40472;53.486;14.542;2023-05-03T09:20:41;11.70;99.50
54576;DHT22;40472;53.486;14.542;2023-05-03T09:23:10;11.60;99.10
54576;DHT22;40472;53.486;14.542;2023-05-03T09:25:43;11.50;99.30
54576;DHT22;40472;53.486;14.542;2023-05-03T09:28:10;11.70;99.90
54576;DHT22;40472;53.486;14.542;2023-05-03T09:30:36;12.20;98.00
54576;DHT22;40472;53.486;14.542;2023-05-03T09:33:02;12.10;97.80
54576;DHT22;40472;53.486;14.542;2023-05-03T09:35:29;12.10;97.60
54576;DHT22;40472;53.486;14.542;2023-05-03T09:37:55;12.20;97.00
54576;DHT22;40472;53.486;14.542;2023-05-03T09:40:21;12.00;99.90
54576;DHT22;40472;53.486;14.542;2023-05-03T09:43:12;11.80;97.30
54576;DHT22;40472;53.486;14.542;2023-05-03T09:45:39;11.60;96.60
54576;DHT22;40472;53.486;14.542;2023-05-03T09:48:06;11.40;94.90
54576;DHT22;40472;53.486;14.542;2023-05-03T09:50:35;11.10;94.30
54576;DHT22;40472;53.486;14.542;2023-05-03T09:53:03;11.20;95.40
54576;DHT22;40472;53.486;14.542;2023-05-03T09:55:37;11.50;95.40
54576;DHT22;40472;53.486;14.542;2023-05-03T09:58:04;11.80;94.90
54576;DHT22;40472;53.486;14.542;2023-05-03T10:00:38;11.90;94.50
54576;DHT22;40472;53.486;14.542;2023-05-03T10:03:11;12.10;94.30
54576;DHT22;40472;53.486;14.542;2023-05-03T10:05:47;12.20;94.30
54576;DHT22;40472;53.486;14.542;2023-05-03T10:08:34;12.30;95.40
54576;DHT22;40472;53.486;14.542;2023-05-03T10:11:03;12.00;94.80
54576;DHT22;40472;53.486;14.542;2023-05-03T10:13:32;11.80;94.50
54576;DHT22;40472;53.486;14.542;2023-05-03T10:16:07;11.60;94.20
54576;DHT22;40472;53.486;14.542;2023-05-03T10:18:43;11.70;93.90
54576;DHT22;40472;53.486;14.542;2023-05-03T10:21:26;11.80;93.20
54576;DHT22;40472;53.486;14.542;2023-05-03T10:24:13;12.00;93.00
54576;DHT22;40472;53.486;14.542;2023-05-03T10:26:45;12.20;92.00
54576;DHT22;40472;53.486;14.542;2023-05-03T10:29:44;12.20;92.30
54576;DHT22;40472;53.486;14.542;2023-05-03T10:32:33;12.10;93.10
54576;DHT22;40472;53.486;14.542;2023-05-03T10:35:14;12.10;92.30
54576;DHT22;40472;53.486;14.542;2023-05-03T10:37:42;12.20;91.80
54576;DHT22;40472;53.486;14.542;2023-05-03T10:40:14;12.40;91.90
54576;DHT22;40472;53.486;14.542;2023-05-03T10:42:53;12.50;91.50
54576;DHT22;40472;53.486;14.542;2023-05-03T10:45:25;12.50;93.00
54576;DHT22;40472;53.486;14.542;2023-05-03T10:48:14;12.80;91.90
54576;DHT22;40472;53.486;14.542;2023-05-03T10:50:41;12.90;91.80
54576;DHT22;40472;53.486;14.542;2023-05-03T10:53:11;12.80;91.00
54576;DHT22;40472;53.486;14.542;2023-05-03T10:56:13;12.60;93.00
54576;DHT22;40472;53.486;14.542;2023-05-03T10:58:44;12.50;96.30
54576;DHT22;40472;53.486;14.542;2023-05-03T11:01:13;12.60;96.10
54576;DHT22;40472;53.486;14.542;2023-05-03T11:03:50;12.90;95.90
54576;DHT22;40472;53.486;14.542;2023-05-03T11:06:37;12.70;95.60
54576;DHT22;40472;53.486;14.542;2023-05-03T11:09:05;12.60;96.70
54576;DHT22;40472;53.486;14.542;2023-05-03T11:11:36;12.50;96.00
54576;DHT22;40472;53.486;14.542;2023-05-03T11:14:04;12.20;91.40
54576;DHT22;40472;53.486;14.542;2023-05-03T11:16:30;12.30;96.70
54576;DHT22;40472;53.486;14.542;2023-05-03T11:18:57;12.50;96.20
54576;DHT22;40472;53.486;14.542;2023-05-03T11:21:24;12.60;95.50
54576;DHT22;40472;53.486;14.542;2023-05-03T11:23:50;12.30;96.70
54576;DHT22;40472;53.486;14.542;2023-05-03T11:26:15;12.20;97.50
54576;DHT22;40472;53.486;14.542;2023-05-03T11:28:42;12.20;97.70
54576;DHT22;40472;53.486;14.542;2023-05-03T11:31:10;12.20;97.60
54576;DHT22;40472;53.486;14.542;2023-05-03T11:33:37;12.40;97.30
54576;DHT22;40472;53.486;14.542;2023-05-03T11:36:05;12.30;97.50
54576;DHT22;40472;53.486;14.542;2023-05-03T11:38:34;12.60;95.70
54576;DHT22;40472;53.486;14.542;2023-05-03T11:41:08;12.90;95.30
54576;DHT22;40472;53.486;14.542;2023-05-03T11:43:43;13.10;93.20
54576;DHT22;40472;53.486;14.542;2023-05-03T11:46:10;13.20;91.50
54576;DHT22;40472;53.486;14.542;2023-05-03T11:48:38;13.10;91.10
54576;DHT22;40472;53.486;14.542;2023-05-03T11:51:08;13.10;90.90
54576;DHT22;40472;53.486;14.542;2023-05-03T11:53:37;12.80;92.10
54576;DHT22;40472;53.486;14.542;2023-05-03T11:56:11;12.80;92.90
54576;DHT22;40472;53.486;14.542;2023-05-03T11:58:55;12.90;91.50
54576;DHT22;40472;53.486;14.542;2023-05-03T12:01:28;12.70;93.70
54576;DHT22;40472;53.486;14.542;2023-05-03T12:04:02;12.50;94.30
54576;DHT22;40472;53.486;14.542;2023-05-03T12:06:33;12.50;94.10
54576;DHT22;40472;53.486;14.542;2023-05-03T12:09:03;12.50;95.60
54576;DHT22;40472;53.486;14.542;2023-05-03T12:11:29;12.70;97.40
54576;DHT22;40472;53.486;14.542;2023-05-03T12:13:59;12.60;94.30
54576;DHT22;40472;53.486;14.542;2023-05-03T12:16:27;12.80;96.70
54576;DHT22;40472;53.486;14.542;2023-05-03T12:18:55;13.00;94.00
54576;DHT22;40472;53.486;14.542;2023-05-03T12:21:47;12.90;94.00
54576;DHT22;40472;53.486;14.542;2023-05-03T12:24:13;12.70;92.70
54576;DHT22;40472;53.486;14.542;2023-05-03T12:26:47;12.90;94.40
54576;DHT22;40472;53.486;14.542;2023-05-03T12:29:13;12.70;94.90
54576;DHT22;40472;53.486;14.542;2023-05-03T12:31:40;12.60;94.50
54576;DHT22;40472;53.486;14.542;2023-05-03T12:34:06;12.60;95.40
54576;DHT22;40472;53.486;14.542;2023-05-03T12:36:32;12.50;94.80
54576;DHT22;40472;53.486;14.542;2023-05-03T12:38:59;12.70;93.90
54576;DHT22;40472;53.486;14.542;2023-05-03T12:41:25;12.50;93.60
54576;DHT22;40472;53.486;14.542;2023-05-03T12:43:54;12.60;94.80
54576;DHT22;40472;53.486;14.542;2023-05-03T12:46:21;12.50;95.10
54576;DHT22;40472;53.486;14.542;2023-05-03T12:48:50;12.70;93.30
54576;DHT22;40472;53.486;14.542;2023-05-03T12:51:16;12.50;93.60
54576;DHT22;40472;53.486;14.542;2023-05-03T12:53:43;12.50;93.50
54576;DHT22;40472;53.486;14.542;2023-05-03T12:56:09;12.60;93.10
54576;DHT22;40472;53.486;14.542;2023-05-03T12:58:37;12.50;93.40
54576;DHT22;40472;53.486;14.542;2023-05-03T13:01:03;12.50;93.50
54576;DHT22;40472;53.486;14.542;2023-05-03T13:03:29;12.30;94.00
54576;DHT22;40472;53.486;14.542;2023-05-03T13:05:58;12.40;94.60
54576;DHT22;40472;53.486;14.542;2023-05-03T13:08:24;12.50;95.50
54576;DHT22;40472;53.486;14.542;2023-05-03T13:10:50;12.70;94.10
54576;DHT22;40472;53.486;14.542;2023-05-03T13:13:17;12.90;93.80
54576;DHT22;40472;53.486;14.542;2023-05-03T13:15:43;13.10;94.30
54576;DHT22;40472;53.486;14.542;2023-05-03T13:18:09;13.20;94.20
54576;DHT22;40472;53.486;14.542;2023-05-03T13:20:35;13.40;92.70
54576;DHT22;40472;53.486;14.542;2023-05-03T13:23:02;13.60;92.70
54576;DHT22;40472;53.486;14.542;2023-05-03T13:25:28;13.30;93.20
54576;DHT22;40472;53.486;14.542;2023-05-03T13:27:59;13.30;93.10
54576;DHT22;40472;53.486;14.542;2023-05-03T13:30:27;13.30;94.70
54576;DHT22;40472;53.486;14.542;2023-05-03T13:32:53;13.40;93.20
54576;DHT22;40472;53.486;14.542;2023-05-03T13:35:19;13.40;93.00
54576;DHT22;40472;53.486;14.542;2023-05-03T13:37:46;13.20;94.00
54576;DHT22;40472;53.486;14.542;2023-05-03T13:40:12;13.10;94.50
54576;DHT22;40472;53.486;14.542;2023-05-03T13:42:40;13.20;93.60
54576;DHT22;40472;53.486;14.542;2023-05-03T13:45:07;13.10;93.40
54576;DHT22;40472;53.486;14.542;2023-05-03T13:47:33;13.20;92.70
54576;DHT22;40472;53.486;14.542;2023-05-03T13:50:00;13.00;93.00
54576;DHT22;40472;53.486;14.542;2023-05-03T13:52:26;13.00;94.00
54576;DHT22;40472;53.486;14.542;2023-05-03T13:54:52;13.00;93.20
54576;DHT22;40472;53.486;14.542;2023-05-03T13:57:19;13.10;92.40
54576;DHT22;40472;53.486;14.542;2023-05-03T13:59:44;13.00;95.10
54576;DHT22;40472;53.486;14.542;2023-05-03T14:02:11;13.00;94.30
54576;DHT22;40472;53.486;14.542;2023-05-03T14:04:36;13.00;94.70
54576;DHT22;40472;53.486;14.542;2023-05-03T14:07:02;13.20;95.20
54576;DHT22;40472;53.486;14.542;2023-05-03T14:09:29;13.20;94.20
54576;DHT22;40472;53.486;14.542;2023-05-03T14:11:55;13.20;96.10
54576;DHT22;40472;53.486;14.542;2023-05-03T14:14:21;13.50;93.20
54576;DHT22;40472;53.486;14.542;2023-05-03T14:16:47;13.50;93.30
54576;DHT22;40472;53.486;14.542;2023-05-03T14:19:13;13.50;92.40
54576;DHT22;40472;53.486;14.542;2023-05-03T14:21:41;13.50;92.50
54576;DHT22;40472;53.486;14.542;2023-05-03T14:24:09;13.50;92.70
54576;DHT22;40472;53.486;14.542;2023-05-03T14:26:37;13.40;91.80
54576;DHT22;40472;53.486;14.542;2023-05-03T14:29:02;13.10;92.50
54576;DHT22;40472;53.486;14.542;2023-05-03T14:31:28;13.10;93.50
54576;DHT22;40472;53.486;14.542;2023-05-03T14:33:54;13.30;95.80
54576;DHT22;40472;53.486;14.542;2023-05-03T14:36:25;13.40;94.00
54576;DHT22;40472;53.486;14.542;2023-05-03T14:38:59;13.50;92.70
54576;DHT22;40472;53.486;14.542;2023-05-03T14:41:25;13.50;93.00
54576;DHT22;40472;53.486;14.542;2023-05-03T14:43:51;13.10;93.80
54576;DHT22;40472;53.486;14.542;2023-05-03T14:46:17;13.10;92.60
54576;DHT22;40472;53.486;14.542;2023-05-03T14:48:43;13.20;92.20
54576;DHT22;40472;53.486;14.542;2023-05-03T14:51:09;13.00;93.10
54576;DHT22;40472;53.486;14.542;2023-05-03T14:53:34;13.10;93.80
54576;DHT22;40472;53.486;14.542;2023-05-03T14:56:00;13.00;94.00
54576;DHT22;40472;53.486;14.542;2023-05-03T14:58:26;12.90;93.10
54576;DHT22;40472;53.486;14.542;2023-05-03T15:00:52;12.70;93.30
54576;DHT22;40472;53.486;14.542;2023-05-03T15:03:18;12.80;93.10
54576;DHT22;40472;53.486;14.542;2023-05-03T15:05:48;12.70;93.60
54576;DHT22;40472;53.486;14.542;2023-05-03T15:08:16;12.90;93.30
54576;DHT22;40472;53.486;14.542;2023-05-03T15:10:43;13.10;92.90
54576;DHT22;40472;53.486;14.542;2023-05-03T15:13:10;13.10;93.60
54576;DHT22;40472;53.486;14.542;2023-05-03T15:15:37;13.00;93.30
54576;DHT22;40472;53.486;14.542;2023-05-03T15:18:03;12.70;94.30
54576;DHT22;40472;53.486;14.542;2023-05-03T15:20:30;12.50;93.70
54576;DHT22;40472;53.486;14.542;2023-05-03T15:22:56;12.40;93.90
54576;DHT22;40472;53.486;14.542;2023-05-03T15:25:22;12.30;93.90
54576;DHT22;40472;53.486;14.542;2023-05-03T15:27:48;12.20;94.50
54576;DHT22;40472;53.486;14.542;2023-05-03T15:30:13;12.20;94.10
54576;DHT22;40472;53.486;14.542;2023-05-03T15:32:41;12.20;94.40
54576;DHT22;40472;53.486;14.542;2023-05-03T15:35:10;12.00;96.00
54576;DHT22;40472;53.486;14.542;2023-05-03T15:37:36;12.10;95.80